createdAt,value
2018-08-06T00:00:15.069Z,100701.91
2018-08-06T00:02:43.422Z,100703.73
2018-08-06T00:05:12.311Z,100706.80
2018-08-06T00:07:40.745Z,100702.17
2018-08-06T00:10:14.915Z,100703.95
2018-08-06T00:12:44.035Z,100709.02
2018-08-06T00:15:13.517Z,100710.82
2018-08-06T00:17:42.239Z,100710.23
2018-08-06T00:20:11.579Z,100718.73
2018-08-06T00:22:40.568Z,100718.31
2018-08-06T00:25:10.394Z,100711.66
2018-08-06T00:27:39.115Z,100724.19
2018-08-06T00:30:09.545Z,100719.13
2018-08-06T00:32:38.639Z,100725.13
2018-08-06T00:35:07.512Z,100715.55
2018-08-06T00:37:36.202Z,100715.67
2018-08-06T00:40:05.397Z,100710.48
2018-08-06T00:42:34.862Z,100707.55
2018-08-06T00:45:03.527Z,100707.45
2018-08-06T00:47:31.946Z,100704.77
2018-08-06T00:50:01.390Z,100693.29
2018-08-06T00:52:29.884Z,100693.06
2018-08-06T00:54:59.127Z,100695.67
2018-08-06T00:57:27.679Z,100685.55
2018-08-06T00:59:56.175Z,100685.45
2018-08-06T01:02:24.663Z,100684.45
2018-08-06T01:04:53.229Z,100683.45
2018-08-06T01:07:21.901Z,100681.58
2018-08-06T01:09:50.955Z,100682.48
2018-08-06T01:12:19.320Z,100686.12
2018-08-06T01:14:47.877Z,100681.61
2018-08-06T01:17:16.391Z,100688.83
2018-08-06T01:19:44.958Z,100685.19
2018-08-06T01:22:13.531Z,100680.13
2018-08-06T01:24:41.983Z,100679.61
2018-08-06T01:27:10.475Z,100676.45
2018-08-06T01:29:39.006Z,100678.70
2018-08-06T01:32:07.920Z,100679.88
2018-08-06T01:34:41.378Z,100677.55
2018-08-06T01:37:09.909Z,100675.67
2018-08-06T01:39:38.329Z,100677.59
2018-08-06T01:42:06.847Z,100668.34
2018-08-06T01:44:35.451Z,100667.57
2018-08-06T01:47:03.910Z,100668.59
2018-08-06T01:49:32.370Z,100662.17
2018-08-06T01:52:00.845Z,100666.02
2018-08-06T01:54:29.301Z,100668.17
2018-08-06T01:56:57.779Z,100670.77
2018-08-06T01:59:26.537Z,100662.42
2018-08-06T02:01:55.024Z,100658.27
2018-08-06T02:04:23.439Z,100661.67
2018-08-06T02:06:52.150Z,100667.98
2018-08-06T02:09:21.753Z,100668.98
2018-08-06T02:11:50.373Z,100663.67
2018-08-06T02:14:18.901Z,100659.07
2018-08-06T02:16:47.513Z,100661.09
2018-08-06T02:19:16.793Z,100656.80
2018-08-06T02:21:45.475Z,100656.02
2018-08-06T02:24:14.165Z,100652.55
2018-08-06T02:26:42.809Z,100655.50
2018-08-06T02:29:12.059Z,100655.31
2018-08-06T02:31:40.757Z,100653.63
2018-08-06T02:34:09.543Z,100658.94
2018-08-06T02:36:38.231Z,100651.52
2018-08-06T02:39:09.300Z,100649.29
2018-08-06T02:41:38.195Z,100659.22
2018-08-06T02:44:07.015Z,100651.22
2018-08-06T02:46:35.896Z,100647.27
2018-08-06T02:49:04.595Z,100646.94
2018-08-06T02:51:33.365Z,100647.40
2018-08-06T02:54:02.169Z,100644.70
2018-08-06T02:56:31.365Z,100644.92
2018-08-06T02:59:00.801Z,100645.24
2018-08-06T03:01:30.501Z,100644.58
2018-08-06T03:03:59.207Z,100640.75
2018-08-06T03:06:27.849Z,100641.88
2018-08-06T03:08:56.627Z,100644.37
2018-08-06T03:11:25.061Z,100639.28
2018-08-06T03:13:53.856Z,100644.26
2018-08-06T03:16:22.505Z,100645.14
2018-08-06T03:18:51.237Z,100641.00
2018-08-06T03:21:19.673Z,100639.09
2018-08-06T03:23:48.117Z,100645.94
2018-08-06T03:26:16.645Z,100647.73
2018-08-06T03:28:45.323Z,100646.26
2018-08-06T03:31:13.799Z,100642.34
2018-08-06T03:33:42.589Z,100650.66
2018-08-06T03:36:16.265Z,100648.43
2018-08-06T03:38:44.742Z,100646.73
2018-08-06T03:41:13.219Z,100654.61
2018-08-06T03:43:41.637Z,100651.45
2018-08-06T03:46:10.347Z,100653.03
2018-08-06T03:48:38.901Z,100655.19
2018-08-06T03:51:07.652Z,100655.73
2018-08-06T03:53:36.547Z,100643.57
2018-08-06T03:56:05.213Z,100652.48
2018-08-06T03:58:33.637Z,100656.73
2018-08-06T04:01:02.179Z,100657.43
2018-08-06T04:03:30.580Z,100654.61
2018-08-06T04:05:59.235Z,100654.73
2018-08-06T04:08:27.768Z,100652.92
2018-08-06T04:10:56.347Z,100650.22
2018-08-06T04:13:24.832Z,100652.38
2018-08-06T04:15:53.335Z,100648.44
2018-08-06T04:18:21.799Z,100652.00
2018-08-06T04:20:50.264Z,100656.17
2018-08-06T04:23:18.671Z,100659.79
2018-08-06T04:25:47.344Z,100666.09
2018-08-06T04:28:16.811Z,100662.61
2018-08-06T04:30:45.281Z,100665.42
2018-08-06T04:33:13.840Z,100672.06
2018-08-06T04:35:42.593Z,100672.06
2018-08-06T04:38:11.436Z,100675.23
2018-08-06T04:40:39.921Z,100673.98
2018-08-06T04:43:08.982Z,100676.46
2018-08-06T04:45:37.524Z,100681.06
2018-08-06T04:48:06.043Z,100681.06
2018-08-06T04:50:34.513Z,100686.35
2018-08-06T04:53:02.899Z,100683.65
2018-08-06T04:55:31.270Z,100687.94
2018-08-06T04:58:00.741Z,100685.12
2018-08-06T05:00:29.997Z,100688.28
2018-08-06T05:02:58.557Z,100682.88
2018-08-06T05:05:27.033Z,100684.55
2018-08-06T05:07:55.563Z,100686.02
2018-08-06T05:10:23.997Z,100688.49
2018-08-06T05:12:52.445Z,100695.05
2018-08-06T05:15:21.047Z,100696.40
2018-08-06T05:17:49.619Z,100690.99
2018-08-06T05:20:18.145Z,100693.47
2018-08-06T05:22:46.815Z,100690.53
2018-08-06T05:25:15.399Z,100693.35
2018-08-06T05:27:44.097Z,100699.09
2018-08-06T05:30:13.687Z,100692.57
2018-08-06T05:32:42.183Z,100694.93
2018-08-06T05:35:10.840Z,100696.25
2018-08-06T05:37:39.279Z,100698.56
2018-08-06T05:40:08.828Z,100698.65
2018-08-06T05:42:37.822Z,100705.41
2018-08-06T05:45:06.961Z,100709.35
2018-08-06T05:47:35.659Z,100705.88
2018-08-06T05:50:05.119Z,100710.13
2018-08-06T05:52:34.037Z,100715.77
2018-08-06T05:55:03.224Z,100711.05
2018-08-06T05:57:31.671Z,100713.19
2018-08-06T06:00:01.971Z,100716.66
2018-08-06T06:02:30.442Z,100712.06
2018-08-06T06:04:59.243Z,100716.78
2018-08-06T06:07:28.113Z,100717.67
2018-08-06T06:09:56.549Z,100720.29
2018-08-06T06:12:25.405Z,100725.81
2018-08-06T06:14:54.651Z,100716.66
2018-08-06T06:17:24.490Z,100717.70
2018-08-06T06:19:53.004Z,100713.95
2018-08-06T06:22:21.429Z,100715.08
2018-08-06T06:24:50.915Z,100711.91
2018-08-06T06:27:19.498Z,100711.36
2018-08-06T06:29:48.249Z,100714.27
2018-08-06T06:32:19.426Z,100713.38
2018-08-06T06:34:52.404Z,100707.16
2018-08-06T06:37:23.527Z,100708.84
2018-08-06T06:39:53.335Z,100711.44
2018-08-06T06:42:23.513Z,100710.54
2018-08-06T06:44:51.987Z,100705.31
2018-08-06T06:47:20.677Z,100711.31
2018-08-06T06:49:49.118Z,100711.42
2018-08-06T06:52:19.687Z,100719.31
2018-08-06T06:54:49.033Z,100712.31
2018-08-06T06:57:17.535Z,100716.25
2018-08-06T06:59:49.188Z,100715.47
2018-08-06T07:02:17.769Z,100716.58
2018-08-06T07:04:46.287Z,100710.94
2018-08-06T07:07:15.248Z,100712.74
2018-08-06T07:09:46.697Z,100711.86
2018-08-06T07:12:16.655Z,100708.58
2018-08-06T07:14:45.899Z,100707.45
2018-08-06T07:17:15.393Z,100708.69
2018-08-06T07:19:43.960Z,100707.98
2018-08-06T07:22:12.453Z,100702.02
2018-08-06T07:24:41.751Z,100708.66
2018-08-06T07:27:11.773Z,100703.89
2018-08-06T07:29:41.423Z,100704.87
2018-08-06T07:32:11.434Z,100707.59
2018-08-06T07:34:40.377Z,100708.36
2018-08-06T07:37:09.075Z,100706.21
2018-08-06T07:39:37.553Z,100709.34
2018-08-06T07:42:06.765Z,100706.97
2018-08-06T07:44:35.547Z,100699.36
2018-08-06T07:47:05.092Z,100697.63
2018-08-06T07:49:34.411Z,100691.28
2018-08-06T07:52:03.453Z,100692.45
2018-08-06T07:54:32.174Z,100693.94
2018-08-06T07:57:01.134Z,100693.80
2018-08-06T07:59:29.723Z,100693.67
2018-08-06T08:01:58.184Z,100690.12
2018-08-06T08:04:26.811Z,100692.58
2018-08-06T08:06:55.296Z,100688.60
2018-08-06T08:09:23.936Z,100692.63
2018-08-06T08:11:52.369Z,100693.14
2018-08-06T08:14:22.371Z,100687.27
2018-08-06T08:16:51.121Z,100680.64
2018-08-06T08:19:20.288Z,100675.17
2018-08-06T08:21:48.942Z,100678.44
2018-08-06T08:24:17.647Z,100679.66
2018-08-06T08:26:46.418Z,100681.33
2018-08-06T08:29:15.029Z,100675.98
2018-08-06T08:31:43.463Z,100670.92
2018-08-06T08:34:12.027Z,100668.20
2018-08-06T08:36:40.500Z,100663.92
2018-08-06T08:39:10.828Z,100662.41
2018-08-06T08:41:39.335Z,100662.80
2018-08-06T08:44:07.924Z,100657.02
2018-08-06T08:46:37.191Z,100660.45
2018-08-06T08:49:06.092Z,100659.72
2018-08-06T08:51:37.039Z,100658.89
2018-08-06T08:54:06.353Z,100654.31
2018-08-06T08:56:35.032Z,100649.03
2018-08-06T08:59:03.849Z,100651.03
2018-08-06T09:01:32.604Z,100649.03
2018-08-06T09:04:01.600Z,100646.30
2018-08-06T09:06:30.620Z,100632.50
2018-08-06T09:08:59.476Z,100631.52
2018-08-06T09:11:29.042Z,100625.50
2018-08-06T09:13:58.319Z,100627.62
2018-08-06T09:16:26.970Z,100629.75
2018-08-06T09:18:56.078Z,100625.85
2018-08-06T09:21:25.617Z,100623.24
2018-08-06T09:23:54.881Z,100624.00
2018-08-06T09:26:24.720Z,100628.06
2018-08-06T09:28:55.015Z,100624.95
2018-08-06T09:31:23.494Z,100622.86
2018-08-06T09:33:52.122Z,100622.64
2018-08-06T09:36:22.915Z,100627.06
2018-08-06T09:38:52.645Z,100621.03
2018-08-06T09:41:21.851Z,100621.25
2018-08-06T09:43:50.931Z,100621.31
2018-08-06T09:46:21.141Z,100614.44
2018-08-06T09:48:50.343Z,100609.11
2018-08-06T09:51:19.542Z,100605.48
2018-08-06T09:53:49.531Z,100605.70
2018-08-06T09:56:18.615Z,100602.94
2018-08-06T09:58:49.486Z,100597.64
2018-08-06T10:01:24.383Z,100600.70
2018-08-06T10:03:56.059Z,100597.36
2018-08-06T10:06:36.890Z,100588.91
2018-08-06T10:09:10.047Z,100588.10
2018-08-06T10:11:40.983Z,100586.98
2018-08-06T10:14:12.128Z,100581.97
2018-08-06T10:16:41.270Z,100576.44
2018-08-06T10:19:10.633Z,100576.92
2018-08-06T10:21:39.923Z,100570.19
2018-08-06T10:24:09.405Z,100563.50
2018-08-06T10:26:38.443Z,100556.57
2018-08-06T10:29:08.049Z,100556.22
2018-08-06T10:31:36.773Z,100554.49
2018-08-06T10:34:05.529Z,100557.12
2018-08-06T10:36:34.491Z,100554.28
2018-08-06T10:39:05.245Z,100539.66
2018-08-06T10:41:33.863Z,100542.44
2018-08-06T10:44:02.513Z,100546.59
2018-08-06T10:46:31.083Z,100534.92
2018-08-06T10:48:59.609Z,100539.20
2018-08-06T10:51:28.465Z,100533.39
2018-08-06T10:53:57.604Z,100528.94
2018-08-06T10:56:27.587Z,100522.16
2018-08-06T10:58:57.511Z,100524.94
2018-08-06T11:01:27.235Z,100515.37
2018-08-06T11:03:56.146Z,100516.55
2018-08-06T11:06:24.713Z,100512.27
2018-08-06T11:08:53.283Z,100514.01
2018-08-06T11:11:21.737Z,100505.45
2018-08-06T11:13:50.595Z,100500.72
2018-08-06T11:16:19.555Z,100496.98
2018-08-06T11:19:07.335Z,100499.47
2018-08-06T11:21:36.259Z,100495.48
2018-08-06T11:24:05.585Z,100493.42
2018-08-06T11:26:34.777Z,100488.41
2018-08-06T11:34:19.446Z,100482.91
2018-08-06T11:36:49.041Z,100489.02
2018-08-06T11:39:17.713Z,100471.20
2018-08-06T11:41:47.503Z,100468.97
2018-08-06T11:44:16.703Z,100475.52
2018-08-06T11:46:45.580Z,100467.22
2018-08-06T11:49:14.110Z,100464.72
2018-08-06T11:51:42.623Z,100466.20
2018-08-06T11:54:23.155Z,100460.78
2018-08-06T11:56:51.894Z,100461.32
2018-08-06T11:59:21.497Z,100450.96
2018-08-06T12:01:50.003Z,100445.16
2018-08-06T12:04:19.019Z,100449.45
2018-08-06T12:06:47.549Z,100441.03
2018-08-06T12:09:16.036Z,100443.78
2018-08-06T12:11:45.050Z,100442.64
2018-08-06T12:14:13.871Z,100445.82
2018-08-06T12:16:42.639Z,100430.51
2018-08-06T12:19:11.375Z,100429.71
2018-08-06T12:21:40.119Z,100426.84
2018-08-06T12:24:10.247Z,100427.27
2018-08-06T12:26:39.309Z,100416.16
2018-08-06T12:29:08.301Z,100412.98
2018-08-06T12:31:37.903Z,100417.42
2018-08-06T12:34:06.913Z,100414.30
2018-08-06T12:36:36.775Z,100406.77
2018-08-06T12:39:13.625Z,100411.03
2018-08-06T12:41:42.551Z,100408.16
2018-08-06T12:44:13.440Z,100404.04
2018-08-06T12:46:42.765Z,100402.25
2018-08-06T12:49:12.039Z,100392.35
2018-08-06T12:51:41.143Z,100394.69
2018-08-06T12:54:11.517Z,100389.09
2018-08-06T12:56:40.569Z,100385.09
2018-08-06T12:59:09.126Z,100387.14
2018-08-06T13:01:37.712Z,100381.77
2018-08-06T13:04:06.250Z,100382.50
2018-08-06T13:06:34.738Z,100376.25
2018-08-06T13:09:03.650Z,100380.37
2018-08-06T13:11:32.338Z,100372.52
2018-08-06T13:14:00.823Z,100368.03
2018-08-06T13:16:29.294Z,100367.41
2018-08-06T13:18:57.741Z,100362.70
2018-08-06T13:21:26.312Z,100361.84
2018-08-06T13:23:54.991Z,100354.83
2018-08-06T13:26:23.644Z,100353.25
2018-08-06T13:28:52.244Z,100357.61
2018-08-06T13:31:20.811Z,100346.68
2018-08-06T13:33:50.284Z,100336.42
2018-08-06T13:36:19.700Z,100343.32
2018-08-06T13:38:48.540Z,100339.53
2018-08-06T13:41:18.192Z,100331.38
2018-08-06T13:43:47.625Z,100330.89
2018-08-06T13:46:16.267Z,100326.27
2018-08-06T13:48:44.866Z,100324.37
2018-08-06T13:51:13.497Z,100318.85
2018-08-06T13:53:43.094Z,100317.55
2018-08-06T13:56:11.759Z,100317.98
2018-08-06T13:58:40.427Z,100307.34
2018-08-06T14:01:09.099Z,100305.81
2018-08-06T14:03:37.588Z,100305.92
2018-08-06T14:06:06.174Z,100297.84
2018-08-06T14:08:34.887Z,100304.19
2018-08-06T14:11:03.528Z,100299.71
2018-08-06T14:13:32.178Z,100300.89
2018-08-06T14:16:00.726Z,100296.27
2018-08-06T14:18:29.361Z,100289.20
2018-08-06T14:20:58.007Z,100281.42
2018-08-06T14:23:26.503Z,100281.98
2018-08-06T14:25:54.972Z,100279.64
2018-08-06T14:28:23.427Z,100269.11
2018-08-06T14:30:51.995Z,100267.98
2018-08-06T14:33:20.713Z,100264.29
2018-08-06T14:35:49.319Z,100253.35
2018-08-06T14:38:17.834Z,100255.78
2018-08-06T14:40:46.373Z,100245.95
2018-08-06T14:43:14.838Z,100253.42
2018-08-06T14:45:43.374Z,100250.67
2018-08-06T14:48:12.487Z,100247.92
2018-08-06T14:50:41.167Z,100253.97
2018-08-06T14:53:09.675Z,100248.69
2018-08-06T14:55:38.121Z,100241.47
2018-08-06T14:58:06.671Z,100241.55
2018-08-06T15:00:35.293Z,100245.53
2018-08-06T15:03:03.693Z,100242.85
2018-08-06T15:05:32.276Z,100235.40
2018-08-06T15:08:00.851Z,100236.36
2018-08-06T15:10:29.447Z,100231.05
2018-08-06T15:12:57.963Z,100233.03
2018-08-06T15:15:31.615Z,100234.11
2018-08-06T15:18:00.090Z,100230.22
2018-08-06T15:20:28.685Z,100222.56
2018-08-06T15:22:58.493Z,100226.08
2018-08-06T15:25:27.315Z,100228.28
2018-08-06T15:27:55.915Z,100221.84
2018-08-06T15:30:24.401Z,100219.73
2018-08-06T15:32:52.831Z,100217.03
2018-08-06T15:35:26.383Z,100212.87
2018-08-06T15:37:55.007Z,100215.47
2018-08-06T15:40:23.918Z,100206.52
2018-08-06T15:42:52.853Z,100203.96
2018-08-06T15:45:21.489Z,100203.05
2018-08-06T15:47:49.957Z,100191.59
2018-08-06T15:50:20.189Z,100198.48
2018-08-06T15:52:48.969Z,100194.11
2018-08-06T15:55:17.714Z,100194.34
2018-08-06T15:57:51.907Z,100196.59
2018-08-06T16:00:25.298Z,100194.76
2018-08-06T16:03:10.464Z,100197.05
2018-08-06T16:08:35.307Z,100184.22
2018-08-06T16:11:12.627Z,100190.92
2018-08-06T16:13:42.362Z,100175.72
2018-08-06T16:16:13.958Z,100167.72
2018-08-06T16:18:44.815Z,100168.30
2018-08-06T16:21:16.797Z,100170.31
2018-08-06T16:23:53.559Z,100164.83
2018-08-06T16:29:37.805Z,100158.28
2018-08-06T16:32:07.048Z,100166.73
2018-08-06T16:37:42.764Z,100151.54
2018-08-06T16:40:12.661Z,100150.75
2018-08-06T16:42:41.515Z,100147.47
2018-08-06T16:45:11.066Z,100142.59
2018-08-06T16:47:40.193Z,100139.24
2018-08-06T16:50:10.707Z,100140.77
2018-08-06T16:52:42.889Z,100144.34
2018-08-06T16:55:12.518Z,100135.05
2018-08-06T16:57:42.653Z,100144.48
2018-08-06T17:00:14.567Z,100131.27
2018-08-06T17:02:44.052Z,100130.55
2018-08-06T17:05:14.055Z,100132.33
2018-08-06T17:07:44.259Z,100134.72
2018-08-06T17:10:16.820Z,100133.95
2018-08-06T17:12:46.379Z,100135.61
2018-08-06T17:15:16.587Z,100133.45
2018-08-06T17:17:46.651Z,100133.48
2018-08-06T17:20:17.449Z,100126.25
2018-08-06T17:22:48.703Z,100124.87
2018-08-06T17:25:17.754Z,100129.56
2018-08-06T17:27:46.995Z,100126.06
2018-08-06T17:30:16.453Z,100123.80
2018-08-06T17:32:45.132Z,100120.10
2018-08-06T17:35:14.520Z,100119.56
2018-08-06T17:37:43.532Z,100112.84
2018-08-06T17:40:17.035Z,100109.56
2018-08-06T17:42:45.623Z,100109.18
2018-08-06T17:45:17.106Z,100104.53
2018-08-06T17:47:46.104Z,100102.78
2018-08-06T17:50:16.241Z,100096.89
2018-08-06T17:52:45.854Z,100105.08
2018-08-06T17:55:14.872Z,100111.13
2018-08-06T17:57:43.580Z,100111.28
2018-08-06T18:00:12.663Z,100114.59
2018-08-06T18:02:41.336Z,100113.23
2018-08-06T18:05:12.164Z,100112.43
2018-08-06T18:07:40.982Z,100107.34
2018-08-06T18:10:10.906Z,100111.03
2018-08-06T18:12:39.621Z,100112.63
2018-08-06T18:15:08.266Z,100115.96
2018-08-06T18:17:37.332Z,100117.88
2018-08-06T18:20:09.626Z,100116.73
2018-08-06T18:22:38.166Z,100120.84
2018-08-06T18:25:09.000Z,100121.06
2018-08-06T18:27:37.651Z,100112.66
2018-08-06T18:30:09.207Z,100113.06
2018-08-06T18:35:20.860Z,100111.63
2018-08-06T18:37:49.405Z,100115.63
2018-08-06T18:40:19.215Z,100115.44
2018-08-06T18:42:47.757Z,100110.02
2018-08-06T18:45:18.026Z,100111.19
2018-08-06T18:47:47.544Z,100118.23
2018-08-06T18:50:16.800Z,100118.42
2018-08-06T18:52:46.242Z,100128.81
2018-08-06T18:55:15.624Z,100118.47
2018-08-06T18:57:44.725Z,100114.17
2018-08-06T19:00:16.164Z,100115.79
2018-08-06T19:02:45.193Z,100117.81
2018-08-06T19:05:13.751Z,100124.70
2018-08-06T19:07:42.565Z,100117.73
2018-08-06T19:10:11.631Z,100133.19
2018-08-06T19:12:45.828Z,100127.95
2018-08-06T19:15:15.456Z,100127.95
2018-08-06T19:17:49.861Z,100133.49
2018-08-06T19:20:19.475Z,100139.95
2018-08-06T19:22:49.002Z,100143.48
2018-08-06T19:25:23.215Z,100141.13
2018-08-06T19:27:52.735Z,100138.40
2018-08-06T19:30:26.508Z,100130.80
2018-08-06T19:32:55.995Z,100131.58
2018-08-06T19:35:25.183Z,100133.92
2018-08-06T19:37:54.312Z,100130.65
2018-08-06T19:40:23.539Z,100129.11
2018-08-06T19:42:57.589Z,100142.79
2018-08-06T19:45:27.013Z,100129.16
2018-08-06T19:47:56.188Z,100126.23
2018-08-06T19:50:30.233Z,100133.67
2018-08-06T19:52:59.564Z,100136.97
2018-08-06T19:55:33.450Z,100134.24
2018-08-06T19:58:02.318Z,100146.95
2018-08-06T20:00:31.337Z,100143.05
2018-08-06T20:03:00.997Z,100143.05
2018-08-06T20:05:34.863Z,100141.13
2018-08-06T20:08:04.858Z,100136.64
2018-08-06T20:10:33.594Z,100136.84
2018-08-06T20:13:02.438Z,100136.08
2018-08-06T20:15:31.136Z,100134.92
2018-08-06T20:17:59.748Z,100128.47
2018-08-06T20:20:28.188Z,100127.30
2018-08-06T20:22:57.712Z,100127.91
2018-08-06T20:25:26.268Z,100129.08
2018-08-06T20:27:54.848Z,100130.44
2018-08-06T20:30:24.366Z,100133.17
2018-08-06T20:32:53.023Z,100126.95
2018-08-06T20:35:21.660Z,100126.76
2018-08-06T20:37:50.258Z,100126.56
2018-08-06T20:40:18.784Z,100129.13
2018-08-06T20:42:47.365Z,100125.81
2018-08-06T20:45:19.339Z,100132.84
2018-08-06T20:47:48.134Z,100131.12
2018-08-06T20:50:17.968Z,100134.80
2018-08-06T20:52:47.346Z,100134.44
2018-08-06T20:55:16.198Z,100133.27
2018-08-06T20:57:44.898Z,100133.84
2018-08-06T21:00:17.786Z,100134.84
2018-08-06T21:02:47.863Z,100133.08
2018-08-06T21:05:16.350Z,100140.51
2018-08-06T21:07:44.945Z,100136.22
2018-08-06T21:10:14.613Z,100136.22
2018-08-06T21:12:43.290Z,100138.59
2018-08-06T21:15:13.084Z,100134.90
2018-08-06T21:17:42.170Z,100136.27
2018-08-06T21:20:12.099Z,100134.70
2018-08-06T21:22:42.744Z,100129.25
2018-08-06T21:25:11.948Z,100131.02
2018-08-06T21:27:41.512Z,100137.44
2018-08-06T21:30:15.227Z,100136.28
2018-08-06T21:32:50.416Z,100134.34
2018-08-06T21:35:19.792Z,100136.71
2018-08-06T21:37:49.680Z,100137.68
2018-08-06T21:40:20.285Z,100131.45
2018-08-06T21:42:49.303Z,100138.68
2018-08-06T21:45:17.965Z,100131.86
2018-08-06T21:47:46.480Z,100135.16
2018-08-06T21:50:15.672Z,100135.92
2018-08-06T21:52:44.438Z,100128.73
2018-08-06T21:55:13.005Z,100129.89
2018-08-06T21:57:41.480Z,100130.69
2018-08-06T22:00:11.839Z,100128.75
2018-08-06T22:02:40.429Z,100128.55
2018-08-06T22:05:08.998Z,100121.36
2018-08-06T22:07:37.477Z,100123.88
2018-08-06T22:10:06.069Z,100119.80
2018-08-06T22:12:34.533Z,100119.22
2018-08-06T22:15:03.127Z,100111.23
2018-08-06T22:17:31.656Z,100110.47
2018-08-06T22:20:00.439Z,100110.27
2018-08-06T22:22:28.918Z,100104.03
2018-08-06T22:24:57.386Z,100106.36
2018-08-06T22:27:25.886Z,100105.19
2018-08-06T22:29:54.446Z,100112.20
2018-08-06T22:32:22.987Z,100104.62
2018-08-06T22:34:51.719Z,100103.61
2018-08-06T22:37:20.196Z,100101.08
2018-08-06T22:39:49.116Z,100104.77
2018-08-06T22:42:17.648Z,100092.13
2018-08-06T22:44:48.132Z,100095.22
2018-08-06T22:47:16.598Z,100096.78
2018-08-06T22:49:45.114Z,100096.00
2018-08-06T22:52:13.620Z,100098.92
2018-08-06T22:54:42.286Z,100098.72
2018-08-06T22:57:10.712Z,100100.46
2018-08-06T22:59:39.238Z,100099.48
2018-08-06T23:02:07.771Z,100096.58
2018-08-06T23:04:36.442Z,100100.08
2018-08-06T23:07:04.972Z,100092.28
2018-08-06T23:09:33.478Z,100092.08
2018-08-06T23:12:01.954Z,100085.84
2018-08-06T23:14:30.687Z,100090.69
2018-08-06T23:16:59.162Z,100087.98
2018-08-06T23:19:27.862Z,100087.17
2018-08-06T23:21:56.588Z,100091.60
2018-08-06T23:24:25.131Z,100084.02
2018-08-06T23:26:53.580Z,100083.43
2018-08-06T23:29:22.097Z,100076.99
2018-08-06T23:31:50.546Z,100070.95
2018-08-06T23:34:18.970Z,100074.81
2018-08-06T23:36:47.407Z,100077.52
2018-08-06T23:39:16.000Z,100074.03
2018-08-06T23:41:44.540Z,100070.90
2018-08-06T23:44:12.979Z,100076.73
2018-08-06T23:46:41.500Z,100073.02
2018-08-06T23:49:10.046Z,100072.83
2018-08-06T23:51:38.600Z,100066.02
2018-08-06T23:54:07.194Z,100067.16
2018-08-06T23:56:35.714Z,100062.48
2018-08-06T23:59:04.462Z,100057.62
